sensor_id;sensor_type;location;lat;lon;timestamp;temperature;humidity
21275;DHT22;36472;52.170;20.884;2022-11-14T00:04:16;22.90;52.50
21275;DHT22;36472;52.170;20.884;2022-11-14T00:07:03;22.90;52.60
21275;DHT22;36472;52.170;20.884;2022-11-14T00:09:50;22.80;52.60
21275;DHT22;36472;52.170;20.884;2022-11-14T00:12:37;22.80;52.70
21275;DHT22;36472;52.170;20.884;2022-11-14T00:15:25;22.80;52.80
21275;DHT22;36472;52.170;20.884;2022-11-14T00:18:12;22.80;52.80
21275;DHT22;36472;52.170;20.884;2022-11-14T00:21:01;22.80;53.50
21275;DHT22;36472;52.170;20.884;2022-11-14T00:23:48;22.90;52.80
21275;DHT22;36472;52.170;20.884;2022-11-14T00:26:36;22.90;52.60
21275;DHT22;36472;52.170;20.884;2022-11-14T00:29:22;22.90;52.60
21275;DHT22;36472;52.170;20.884;2022-11-14T00:32:10;22.90;52.70
21275;DHT22;36472;52.170;20.884;2022-11-14T00:34:57;22.90;52.70
21275;DHT22;36472;52.170;20.884;2022-11-14T00:37:46;23.00;52.70
21275;DHT22;36472;52.170;20.884;2022-11-14T00:40:33;23.00;52.50
21275;DHT22;36472;52.170;20.884;2022-11-14T00:43:20;22.90;52.40
21275;DHT22;36472;52.170;20.884;2022-11-14T00:46:07;22.90;52.40
21275;DHT22;36472;52.170;20.884;2022-11-14T00:48:55;22.90;52.40
21275;DHT22;36472;52.170;20.884;2022-11-14T00:51:42;22.90;52.30
21275;DHT22;36472;52.170;20.884;2022-11-14T00:54:30;22.90;52.40
21275;DHT22;36472;52.170;20.884;2022-11-14T00:57:17;22.90;52.50
21275;DHT22;36472;52.170;20.884;2022-11-14T01:00:06;22.90;52.40
21275;DHT22;36472;52.170;20.884;2022-11-14T01:02:54;22.90;52.50
21275;DHT22;36472;52.170;20.884;2022-11-14T01:05:45;22.80;52.60
21275;DHT22;36472;52.170;20.884;2022-11-14T01:08:33;22.80;52.70
21275;DHT22;36472;52.170;20.884;2022-11-14T01:11:22;22.80;52.70
21275;DHT22;36472;52.170;20.884;2022-11-14T01:14:09;22.70;52.70
21275;DHT22;36472;52.170;20.884;2022-11-14T01:16:57;22.60;52.90
21275;DHT22;36472;52.170;20.884;2022-11-14T01:19:44;22.60;53.00
21275;DHT22;36472;52.170;20.884;2022-11-14T01:22:31;22.60;53.20
21275;DHT22;36472;52.170;20.884;2022-11-14T01:25:18;22.60;53.20
21275;DHT22;36472;52.170;20.884;2022-11-14T01:28:10;22.50;53.20
21275;DHT22;36472;52.170;20.884;2022-11-14T01:31:07;22.50;53.30
21275;DHT22;36472;52.170;20.884;2022-11-14T01:33:56;22.40;53.40
21275;DHT22;36472;52.170;20.884;2022-11-14T01:36:43;22.40;53.50
21275;DHT22;36472;52.170;20.884;2022-11-14T01:44:01;22.40;53.60
21275;DHT22;36472;52.170;20.884;2022-11-14T01:46:51;22.40;53.70
21275;DHT22;36472;52.170;20.884;2022-11-14T01:49:46;22.40;53.80
21275;DHT22;36472;52.170;20.884;2022-11-14T01:52:38;22.40;53.80
21275;DHT22;36472;52.170;20.884;2022-11-14T01:55:26;22.40;53.70
21275;DHT22;36472;52.170;20.884;2022-11-14T01:58:15;22.40;53.70
21275;DHT22;36472;52.170;20.884;2022-11-14T02:01:04;22.50;53.70
21275;DHT22;36472;52.170;20.884;2022-11-14T02:03:52;22.50;53.70
21275;DHT22;36472;52.170;20.884;2022-11-14T02:06:41;22.50;53.70
21275;DHT22;36472;52.170;20.884;2022-11-14T02:09:34;22.60;54.50
21275;DHT22;36472;52.170;20.884;2022-11-14T02:12:23;22.50;53.70
21275;DHT22;36472;52.170;20.884;2022-11-14T02:15:11;22.60;53.60
21275;DHT22;36472;52.170;20.884;2022-11-14T02:18:01;22.50;53.70
21275;DHT22;36472;52.170;20.884;2022-11-14T02:20:49;22.50;53.70
21275;DHT22;36472;52.170;20.884;2022-11-14T02:23:36;22.50;53.70
21275;DHT22;36472;52.170;20.884;2022-11-14T02:26:24;22.60;53.80
21275;DHT22;36472;52.170;20.884;2022-11-14T02:29:11;22.50;53.70
21275;DHT22;36472;52.170;20.884;2022-11-14T02:31:59;22.50;54.50
21275;DHT22;36472;52.170;20.884;2022-11-14T02:34:49;22.50;53.70
21275;DHT22;36472;52.170;20.884;2022-11-14T02:37:38;22.50;53.70
21275;DHT22;36472;52.170;20.884;2022-11-14T02:40:26;22.50;53.80
21275;DHT22;36472;52.170;20.884;2022-11-14T02:43:13;22.40;53.80
21275;DHT22;36472;52.170;20.884;2022-11-14T02:46:00;22.30;54.00
21275;DHT22;36472;52.170;20.884;2022-11-14T02:48:51;22.20;54.10
21275;DHT22;36472;52.170;20.884;2022-11-14T02:51:37;22.20;54.30
21275;DHT22;36472;52.170;20.884;2022-11-14T02:54:27;22.20;54.30
21275;DHT22;36472;52.170;20.884;2022-11-14T02:57:14;22.20;54.40
21275;DHT22;36472;52.170;20.884;2022-11-14T03:00:01;22.20;54.40
21275;DHT22;36472;52.170;20.884;2022-11-14T03:02:53;22.20;54.40
21275;DHT22;36472;52.170;20.884;2022-11-14T03:05:41;22.20;54.20
21275;DHT22;36472;52.170;20.884;2022-11-14T03:08:28;22.30;54.30
21275;DHT22;36472;52.170;20.884;2022-11-14T03:11:17;22.30;54.30
21275;DHT22;36472;52.170;20.884;2022-11-14T03:14:04;22.20;54.30
21275;DHT22;36472;52.170;20.884;2022-11-14T03:16:54;22.20;54.10
21275;DHT22;36472;52.170;20.884;2022-11-14T03:19:41;22.20;54.10
21275;DHT22;36472;52.170;20.884;2022-11-14T03:22:28;22.20;54.30
21275;DHT22;36472;52.170;20.884;2022-11-14T03:25:15;22.30;54.30
21275;DHT22;36472;52.170;20.884;2022-11-14T03:28:05;22.20;54.00
21275;DHT22;36472;52.170;20.884;2022-11-14T03:30:51;22.10;54.00
21275;DHT22;36472;52.170;20.884;2022-11-14T03:33:39;22.20;54.00
21275;DHT22;36472;52.170;20.884;2022-11-14T03:36:26;22.20;54.20
21275;DHT22;36472;52.170;20.884;2022-11-14T03:39:14;22.20;54.20
21275;DHT22;36472;52.170;20.884;2022-11-14T03:42:01;22.20;54.00
21275;DHT22;36472;52.170;20.884;2022-11-14T03:44:51;22.30;54.10
21275;DHT22;36472;52.170;20.884;2022-11-14T03:52:29;22.20;54.00
21275;DHT22;36472;52.170;20.884;2022-11-14T03:55:16;22.20;54.00
21275;DHT22;36472;52.170;20.884;2022-11-14T03:58:03;22.20;54.20
21275;DHT22;36472;52.170;20.884;2022-11-14T04:00:51;22.20;54.10
21275;DHT22;36472;52.170;20.884;2022-11-14T04:03:40;22.30;54.00
21275;DHT22;36472;52.170;20.884;2022-11-14T04:06:27;22.30;54.00
21275;DHT22;36472;52.170;20.884;2022-11-14T04:09:15;22.40;54.00
21275;DHT22;36472;52.170;20.884;2022-11-14T04:12:02;22.40;53.80
21275;DHT22;36472;52.170;20.884;2022-11-14T04:14:49;22.40;53.80
21275;DHT22;36472;52.170;20.884;2022-11-14T04:17:38;22.40;53.70
21275;DHT22;36472;52.170;20.884;2022-11-14T04:20:26;22.30;53.60
21275;DHT22;36472;52.170;20.884;2022-11-14T04:23:13;22.30;53.70
21275;DHT22;36472;52.170;20.884;2022-11-14T04:26:00;22.30;53.90
21275;DHT22;36472;52.170;20.884;2022-11-14T04:28:47;22.30;53.70
21275;DHT22;36472;52.170;20.884;2022-11-14T04:31:35;22.30;53.70
21275;DHT22;36472;52.170;20.884;2022-11-14T04:34:23;22.20;53.70
21275;DHT22;36472;52.170;20.884;2022-11-14T04:37:10;22.10;53.90
21275;DHT22;36472;52.170;20.884;2022-11-14T04:39:57;22.20;54.00
21275;DHT22;36472;52.170;20.884;2022-11-14T04:42:47;22.20;54.50
21275;DHT22;36472;52.170;20.884;2022-11-14T04:45:35;22.20;53.80
21275;DHT22;36472;52.170;20.884;2022-11-14T04:48:22;22.30;53.80
21275;DHT22;36472;52.170;20.884;2022-11-14T04:51:11;22.30;54.40
21275;DHT22;36472;52.170;20.884;2022-11-14T04:53:58;22.30;53.70
21275;DHT22;36472;52.170;20.884;2022-11-14T04:56:45;22.40;53.60
21275;DHT22;36472;52.170;20.884;2022-11-14T04:59:33;22.40;53.60
21275;DHT22;36472;52.170;20.884;2022-11-14T05:02:20;22.40;53.50
21275;DHT22;36472;52.170;20.884;2022-11-14T05:05:08;22.40;53.40
21275;DHT22;36472;52.170;20.884;2022-11-14T05:07:56;22.30;53.50
21275;DHT22;36472;52.170;20.884;2022-11-14T05:10:44;22.30;53.60
21275;DHT22;36472;52.170;20.884;2022-11-14T05:13:32;22.30;53.60
21275;DHT22;36472;52.170;20.884;2022-11-14T05:16:19;22.30;53.50
21275;DHT22;36472;52.170;20.884;2022-11-14T05:19:06;22.30;53.70
21275;DHT22;36472;52.170;20.884;2022-11-14T05:21:54;22.20;53.60
21275;DHT22;36472;52.170;20.884;2022-11-14T05:24:42;22.20;53.70
21275;DHT22;36472;52.170;20.884;2022-11-14T05:27:30;22.30;53.70
21275;DHT22;36472;52.170;20.884;2022-11-14T05:30:17;22.30;53.60
21275;DHT22;36472;52.170;20.884;2022-11-14T05:33:05;22.30;53.60
21275;DHT22;36472;52.170;20.884;2022-11-14T05:35:52;22.30;53.50
21275;DHT22;36472;52.170;20.884;2022-11-14T05:38:40;22.30;53.40
21275;DHT22;36472;52.170;20.884;2022-11-14T05:41:29;22.40;53.40
21275;DHT22;36472;52.170;20.884;2022-11-14T05:44:16;22.30;53.30
21275;DHT22;36472;52.170;20.884;2022-11-14T05:47:04;22.40;53.20
21275;DHT22;36472;52.170;20.884;2022-11-14T05:49:51;22.30;53.20
21275;DHT22;36472;52.170;20.884;2022-11-14T05:52:38;22.30;53.30
21275;DHT22;36472;52.170;20.884;2022-11-14T05:55:26;22.40;53.40
21275;DHT22;36472;52.170;20.884;2022-11-14T05:58:14;22.40;53.30
21275;DHT22;36472;52.170;20.884;2022-11-14T06:01:02;22.40;53.30
21275;DHT22;36472;52.170;20.884;2022-11-14T06:03:51;22.40;53.20
21275;DHT22;36472;52.170;20.884;2022-11-14T06:06:38;22.40;53.10
21275;DHT22;36472;52.170;20.884;2022-11-14T06:14:18;22.40;53.10
21275;DHT22;36472;52.170;20.884;2022-11-14T06:17:04;22.40;53.00
21275;DHT22;36472;52.170;20.884;2022-11-14T06:19:52;22.40;53.10
21275;DHT22;36472;52.170;20.884;2022-11-14T06:22:39;22.40;53.10
21275;DHT22;36472;52.170;20.884;2022-11-14T06:25:26;22.40;53.20
21275;DHT22;36472;52.170;20.884;2022-11-14T06:28:14;22.30;53.10
21275;DHT22;36472;52.170;20.884;2022-11-14T06:31:04;22.30;53.20
21275;DHT22;36472;52.170;20.884;2022-11-14T06:33:51;22.30;53.20
21275;DHT22;36472;52.170;20.884;2022-11-14T06:36:39;22.30;53.20
21275;DHT22;36472;52.170;20.884;2022-11-14T06:39:26;22.30;53.20
21275;DHT22;36472;52.170;20.884;2022-11-14T06:42:14;22.40;53.10
21275;DHT22;36472;52.170;20.884;2022-11-14T06:45:02;22.30;53.00
21275;DHT22;36472;52.170;20.884;2022-11-14T06:47:51;22.40;53.20
21275;DHT22;36472;52.170;20.884;2022-11-14T06:50:38;22.40;53.10
21275;DHT22;36472;52.170;20.884;2022-11-14T06:53:28;22.30;52.80
21275;DHT22;36472;52.170;20.884;2022-11-14T06:56:17;22.30;52.60
21275;DHT22;36472;52.170;20.884;2022-11-14T06:59:05;22.20;52.70
21275;DHT22;36472;52.170;20.884;2022-11-14T07:01:52;22.10;52.70
21275;DHT22;36472;52.170;20.884;2022-11-14T07:04:41;21.90;53.90
21275;DHT22;36472;52.170;20.884;2022-11-14T07:07:29;21.90;53.40
21275;DHT22;36472;52.170;20.884;2022-11-14T07:10:16;21.80;53.50
21275;DHT22;36472;52.170;20.884;2022-11-14T07:13:03;21.70;53.60
21275;DHT22;36472;52.170;20.884;2022-11-14T07:15:52;21.60;53.70
21275;DHT22;36472;52.170;20.884;2022-11-14T07:18:39;21.40;53.80
21275;DHT22;36472;52.170;20.884;2022-11-14T07:21:29;21.40;54.40
21275;DHT22;36472;52.170;20.884;2022-11-14T07:24:17;21.40;54.00
21275;DHT22;36472;52.170;20.884;2022-11-14T07:27:04;21.30;54.60
21275;DHT22;36472;52.170;20.884;2022-11-14T07:29:54;21.40;54.20
21275;DHT22;36472;52.170;20.884;2022-11-14T07:32:41;21.40;54.20
21275;DHT22;36472;52.170;20.884;2022-11-14T07:35:28;21.50;53.90
21275;DHT22;36472;52.170;20.884;2022-11-14T07:38:17;21.60;54.00
21275;DHT22;36472;52.170;20.884;2022-11-14T07:41:07;21.70;53.60
21275;DHT22;36472;52.170;20.884;2022-11-14T07:43:56;21.80;53.40
21275;DHT22;36472;52.170;20.884;2022-11-14T07:51:35;21.80;53.20
21275;DHT22;36472;52.170;20.884;2022-11-14T07:54:24;21.90;53.20
21275;DHT22;36472;52.170;20.884;2022-11-14T07:57:12;21.90;52.90
21275;DHT22;36472;52.170;20.884;2022-11-14T07:59:59;21.90;52.90
21275;DHT22;36472;52.170;20.884;2022-11-14T08:02:47;21.90;53.10
21275;DHT22;36472;52.170;20.884;2022-11-14T08:05:34;21.90;53.10
21275;DHT22;36472;52.170;20.884;2022-11-14T08:08:22;21.90;52.90
21275;DHT22;36472;52.170;20.884;2022-11-14T08:11:10;21.80;52.80
21275;DHT22;36472;52.170;20.884;2022-11-14T08:14:07;21.70;52.60
21275;DHT22;36472;52.170;20.884;2022-11-14T08:16:55;21.60;53.00
21275;DHT22;36472;52.170;20.884;2022-11-14T08:19:42;21.60;53.00
21275;DHT22;36472;52.170;20.884;2022-11-14T08:22:29;21.70;53.10
21275;DHT22;36472;52.170;20.884;2022-11-14T08:30:10;21.70;52.50
21275;DHT22;36472;52.170;20.884;2022-11-14T08:33:00;21.70;53.00
21275;DHT22;36472;52.170;20.884;2022-11-14T08:35:49;21.80;52.50
21275;DHT22;36472;52.170;20.884;2022-11-14T08:38:36;21.80;52.70
21275;DHT22;36472;52.170;20.884;2022-11-14T08:41:23;21.50;52.70
21275;DHT22;36472;52.170;20.884;2022-11-14T08:44:10;21.40;53.20
21275;DHT22;36472;52.170;20.884;2022-11-14T08:46:59;21.50;53.30
21275;DHT22;36472;52.170;20.884;2022-11-14T08:49:48;21.40;53.40
21275;DHT22;36472;52.170;20.884;2022-11-14T08:52:36;21.50;53.30
21275;DHT22;36472;52.170;20.884;2022-11-14T08:55:23;21.60;53.40
21275;DHT22;36472;52.170;20.884;2022-11-14T08:58:10;21.50;53.10
21275;DHT22;36472;52.170;20.884;2022-11-14T09:01:01;21.60;53.30
21275;DHT22;36472;52.170;20.884;2022-11-14T09:03:52;21.50;53.30
21275;DHT22;36472;52.170;20.884;2022-11-14T09:11:40;21.40;53.60
21275;DHT22;36472;52.170;20.884;2022-11-14T09:14:27;21.40;53.40
21275;DHT22;36472;52.170;20.884;2022-11-14T09:17:15;21.40;53.60
21275;DHT22;36472;52.170;20.884;2022-11-14T09:20:04;21.40;53.30
21275;DHT22;36472;52.170;20.884;2022-11-14T09:22:51;21.50;53.30
21275;DHT22;36472;52.170;20.884;2022-11-14T09:25:38;21.60;52.80
21275;DHT22;36472;52.170;20.884;2022-11-14T09:28:26;21.70;52.70
21275;DHT22;36472;52.170;20.884;2022-11-14T09:31:13;21.90;52.10
21275;DHT22;36472;52.170;20.884;2022-11-14T09:34:00;21.90;52.00
21275;DHT22;36472;52.170;20.884;2022-11-14T09:36:49;21.90;51.90
21275;DHT22;36472;52.170;20.884;2022-11-14T09:39:36;21.90;52.00
21275;DHT22;36472;52.170;20.884;2022-11-14T09:42:39;21.70;52.60
21275;DHT22;36472;52.170;20.884;2022-11-14T09:45:46;21.70;52.30
21275;DHT22;36472;52.170;20.884;2022-11-14T09:48:35;21.70;52.50
21275;DHT22;36472;52.170;20.884;2022-11-14T09:51:26;21.70;52.40
21275;DHT22;36472;52.170;20.884;2022-11-14T09:54:22;21.80;52.10
21275;DHT22;36472;52.170;20.884;2022-11-14T09:57:14;21.90;52.30
21275;DHT22;36472;52.170;20.884;2022-11-14T10:04:45;22.00;51.90
21275;DHT22;36472;52.170;20.884;2022-11-14T10:07:48;22.00;51.70
21275;DHT22;36472;52.170;20.884;2022-11-14T10:10:52;21.90;51.70
21275;DHT22;36472;52.170;20.884;2022-11-14T10:14:07;21.90;51.90
21275;DHT22;36472;52.170;20.884;2022-11-14T10:17:21;22.00;52.00
21275;DHT22;36472;52.170;20.884;2022-11-14T10:20:28;21.90;51.90
21275;DHT22;36472;52.170;20.884;2022-11-14T10:23:30;21.90;51.90
21275;DHT22;36472;52.170;20.884;2022-11-14T10:31:04;21.90;51.80
21275;DHT22;36472;52.170;20.884;2022-11-14T10:34:03;22.00;51.60
21275;DHT22;36472;52.170;20.884;2022-11-14T10:37:01;22.10;51.60
21275;DHT22;36472;52.170;20.884;2022-11-14T10:40:00;22.00;51.40
21275;DHT22;36472;52.170;20.884;2022-11-14T10:43:03;22.10;51.60
21275;DHT22;36472;52.170;20.884;2022-11-14T10:46:08;21.80;51.50
21275;DHT22;36472;52.170;20.884;2022-11-14T10:49:10;21.80;52.00
21275;DHT22;36472;52.170;20.884;2022-11-14T10:52:04;21.70;51.80
21275;DHT22;36472;52.170;20.884;2022-11-14T10:59:46;21.60;52.30
21275;DHT22;36472;52.170;20.884;2022-11-14T11:02:48;21.70;52.20
21275;DHT22;36472;52.170;20.884;2022-11-14T11:05:46;21.70;51.80
21275;DHT22;36472;52.170;20.884;2022-11-14T11:08:40;21.80;51.60
21275;DHT22;36472;52.170;20.884;2022-11-14T11:11:53;21.80;51.50
21275;DHT22;36472;52.170;20.884;2022-11-14T11:14:43;21.80;51.60
21275;DHT22;36472;52.170;20.884;2022-11-14T11:17:30;21.90;51.60
21275;DHT22;36472;52.170;20.884;2022-11-14T11:20:29;22.00;52.30
21275;DHT22;36472;52.170;20.884;2022-11-14T11:23:21;22.00;51.20
21275;DHT22;36472;52.170;20.884;2022-11-14T11:30:38;21.80;51.40
21275;DHT22;36472;52.170;20.884;2022-11-14T11:33:27;21.70;51.40
21275;DHT22;36472;52.170;20.884;2022-11-14T11:36:20;21.60;51.70
21275;DHT22;36472;52.170;20.884;2022-11-14T11:39:18;21.60;51.80
21275;DHT22;36472;52.170;20.884;2022-11-14T11:42:14;21.60;51.80
21275;DHT22;36472;52.170;20.884;2022-11-14T11:45:11;21.60;51.90
21275;DHT22;36472;52.170;20.884;2022-11-14T11:48:08;21.60;52.20
21275;DHT22;36472;52.170;20.884;2022-11-14T11:51:03;21.60;52.20
21275;DHT22;36472;52.170;20.884;2022-11-14T11:54:02;21.70;52.10
21275;DHT22;36472;52.170;20.884;2022-11-14T12:01:49;21.90;51.70
21275;DHT22;36472;52.170;20.884;2022-11-14T12:04:37;22.00;51.70
21275;DHT22;36472;52.170;20.884;2022-11-14T12:07:34;22.00;51.60
21275;DHT22;36472;52.170;20.884;2022-11-14T12:10:35;21.90;51.40
21275;DHT22;36472;52.170;20.884;2022-11-14T12:21:32;21.90;50.90
21275;DHT22;36472;52.170;20.884;2022-11-14T12:24:49;21.70;51.00
21275;DHT22;36472;52.170;20.884;2022-11-14T12:27:59;21.60;51.20
21275;DHT22;36472;52.170;20.884;2022-11-14T12:30:57;21.50;51.50
21275;DHT22;36472;52.170;20.884;2022-11-14T12:33:53;21.40;52.10
21275;DHT22;36472;52.170;20.884;2022-11-14T12:36:44;21.40;52.70
21275;DHT22;36472;52.170;20.884;2022-11-14T12:39:32;21.40;51.90
21275;DHT22;36472;52.170;20.884;2022-11-14T12:42:20;21.40;51.90
21275;DHT22;36472;52.170;20.884;2022-11-14T12:48:46;21.40;52.00
21275;DHT22;36472;52.170;20.884;2022-11-14T12:56:56;21.40;51.50
21275;DHT22;36472;52.170;20.884;2022-11-14T12:59:58;21.50;51.60
21275;DHT22;36472;52.170;20.884;2022-11-14T13:03:18;21.50;51.40
21275;DHT22;36472;52.170;20.884;2022-11-14T13:06:21;21.60;51.10
21275;DHT22;36472;52.170;20.884;2022-11-14T13:09:37;21.60;51.00
21275;DHT22;36472;52.170;20.884;2022-11-14T13:12:41;21.70;50.90
21275;DHT22;36472;52.170;20.884;2022-11-14T13:15:48;21.60;51.30
21275;DHT22;36472;52.170;20.884;2022-11-14T13:19:02;21.50;50.90
21275;DHT22;36472;52.170;20.884;2022-11-14T13:22:35;21.60;50.90
21275;DHT22;36472;52.170;20.884;2022-11-14T13:25:26;21.60;51.60
21275;DHT22;36472;52.170;20.884;2022-11-14T13:28:45;21.50;51.80
21275;DHT22;36472;52.170;20.884;2022-11-14T13:31:47;21.50;50.90
21275;DHT22;36472;52.170;20.884;2022-11-14T13:34:45;21.30;51.10
21275;DHT22;36472;52.170;20.884;2022-11-14T13:37:49;21.30;51.20
21275;DHT22;36472;52.170;20.884;2022-11-14T13:40:54;21.20;51.30
21275;DHT22;36472;52.170;20.884;2022-11-14T13:44:00;21.10;51.20
21275;DHT22;36472;52.170;20.884;2022-11-14T13:47:21;21.00;51.50
21275;DHT22;36472;52.170;20.884;2022-11-14T13:50:38;20.90;51.70
21275;DHT22;36472;52.170;20.884;2022-11-14T13:53:29;21.00;51.80
21275;DHT22;36472;52.170;20.884;2022-11-14T13:56:26;21.00;51.80
21275;DHT22;36472;52.170;20.884;2022-11-14T14:03:12;21.10;51.80
21275;DHT22;36472;52.170;20.884;2022-11-14T14:06:26;21.10;51.40
21275;DHT22;36472;52.170;20.884;2022-11-14T14:09:26;21.10;51.50
21275;DHT22;36472;52.170;20.884;2022-11-14T14:12:40;21.10;51.50
21275;DHT22;36472;52.170;20.884;2022-11-14T14:15:46;21.10;52.00
21275;DHT22;36472;52.170;20.884;2022-11-14T14:18:49;21.20;51.50
21275;DHT22;36472;52.170;20.884;2022-11-14T14:21:53;21.30;51.20
21275;DHT22;36472;52.170;20.884;2022-11-14T14:24:52;21.30;51.00
21275;DHT22;36472;52.170;20.884;2022-11-14T14:27:54;21.30;50.90
21275;DHT22;36472;52.170;20.884;2022-11-14T14:31:03;21.40;50.90
21275;DHT22;36472;52.170;20.884;2022-11-14T14:33:57;21.40;50.80
21275;DHT22;36472;52.170;20.884;2022-11-14T14:36:49;21.40;50.50
21275;DHT22;36472;52.170;20.884;2022-11-14T14:39:38;21.40;50.50
21275;DHT22;36472;52.170;20.884;2022-11-14T14:42:27;21.50;50.30
21275;DHT22;36472;52.170;20.884;2022-11-14T14:45:25;21.50;50.30
21275;DHT22;36472;52.170;20.884;2022-11-14T14:48:14;21.50;50.30
21275;DHT22;36472;52.170;20.884;2022-11-14T14:51:12;21.40;50.40
21275;DHT22;36472;52.170;20.884;2022-11-14T14:54:02;21.40;50.70
21275;DHT22;36472;52.170;20.884;2022-11-14T14:56:54;21.40;50.60
21275;DHT22;36472;52.170;20.884;2022-11-14T14:59:44;21.40;50.40
21275;DHT22;36472;52.170;20.884;2022-11-14T15:02:32;21.40;50.40
21275;DHT22;36472;52.170;20.884;2022-11-14T15:05:21;21.40;50.30
21275;DHT22;36472;52.170;20.884;2022-11-14T15:08:11;21.20;50.10
21275;DHT22;36472;52.170;20.884;2022-11-14T15:11:02;21.10;50.60
21275;DHT22;36472;52.170;20.884;2022-11-14T15:13:54;21.10;50.60
21275;DHT22;36472;52.170;20.884;2022-11-14T15:16:44;21.10;50.80
21275;DHT22;36472;52.170;20.884;2022-11-14T15:19:38;21.10;50.90
21275;DHT22;36472;52.170;20.884;2022-11-14T15:22:27;21.10;50.70
21275;DHT22;36472;52.170;20.884;2022-11-14T15:25:20;21.10;50.60
21275;DHT22;36472;52.170;20.884;2022-11-14T15:28:18;21.00;50.60
21275;DHT22;36472;52.170;20.884;2022-11-14T15:31:15;20.90;51.30
21275;DHT22;36472;52.170;20.884;2022-11-14T15:34:20;20.80;50.70
21275;DHT22;36472;52.170;20.884;2022-11-14T15:37:21;20.70;50.80
21275;DHT22;36472;52.170;20.884;2022-11-14T15:40:17;20.60;50.90
21275;DHT22;36472;52.170;20.884;2022-11-14T15:46:39;20.70;50.80
21275;DHT22;36472;52.170;20.884;2022-11-14T15:49:31;20.70;50.60
21275;DHT22;36472;52.170;20.884;2022-11-14T15:57:15;20.80;50.50
21275;DHT22;36472;52.170;20.884;2022-11-14T16:00:05;20.80;50.30
21275;DHT22;36472;52.170;20.884;2022-11-14T16:02:55;20.90;50.30
21275;DHT22;36472;52.170;20.884;2022-11-14T16:05:42;20.80;50.40
21275;DHT22;36472;52.170;20.884;2022-11-14T16:08:31;20.90;50.40
21275;DHT22;36472;52.170;20.884;2022-11-14T16:11:18;20.80;50.60
21275;DHT22;36472;52.170;20.884;2022-11-14T16:14:06;20.80;50.60
21275;DHT22;36472;52.170;20.884;2022-11-14T16:16:54;20.80;50.60
21275;DHT22;36472;52.170;20.884;2022-11-14T16:19:42;20.90;50.50
21275;DHT22;36472;52.170;20.884;2022-11-14T16:22:29;20.80;51.00
21275;DHT22;36472;52.170;20.884;2022-11-14T16:25:19;20.80;50.60
21275;DHT22;36472;52.170;20.884;2022-11-14T16:28:08;20.80;50.40
21275;DHT22;36472;52.170;20.884;2022-11-14T16:30:56;20.80;50.30
21275;DHT22;36472;52.170;20.884;2022-11-14T16:38:35;20.90;50.30
21275;DHT22;36472;52.170;20.884;2022-11-14T16:41:22;21.00;49.90
21275;DHT22;36472;52.170;20.884;2022-11-14T16:44:14;20.90;49.80
21275;DHT22;36472;52.170;20.884;2022-11-14T16:47:02;20.80;50.00
21275;DHT22;36472;52.170;20.884;2022-11-14T16:49:50;20.70;50.30
21275;DHT22;36472;52.170;20.884;2022-11-14T16:52:37;20.60;50.60
21275;DHT22;36472;52.170;20.884;2022-11-14T16:55:26;20.50;50.60
21275;DHT22;36472;52.170;20.884;2022-11-14T16:58:13;20.40;50.60
21275;DHT22;36472;52.170;20.884;2022-11-14T17:01:01;20.40;51.00
21275;DHT22;36472;52.170;20.884;2022-11-14T17:03:50;20.40;51.10
21275;DHT22;36472;52.170;20.884;2022-11-14T17:06:38;20.50;51.00
21275;DHT22;36472;52.170;20.884;2022-11-14T17:09:25;20.60;50.80
21275;DHT22;36472;52.170;20.884;2022-11-14T17:12:14;20.60;50.60
21275;DHT22;36472;52.170;20.884;2022-11-14T17:15:02;20.70;50.50
21275;DHT22;36472;52.170;20.884;2022-11-14T17:17:50;20.70;50.20
21275;DHT22;36472;52.170;20.884;2022-11-14T17:20:37;20.70;50.30
21275;DHT22;36472;52.170;20.884;2022-11-14T17:23:24;20.50;50.20
21275;DHT22;36472;52.170;20.884;2022-11-14T17:31:09;20.30;51.10
21275;DHT22;36472;52.170;20.884;2022-11-14T17:33:57;20.50;51.00
21275;DHT22;36472;52.170;20.884;2022-11-14T17:36:46;20.60;50.90
21275;DHT22;36472;52.170;20.884;2022-11-14T17:39:33;20.70;50.60
21275;DHT22;36472;52.170;20.884;2022-11-14T17:42:20;20.70;50.60
21275;DHT22;36472;52.170;20.884;2022-11-14T17:45:08;20.70;50.60
21275;DHT22;36472;52.170;20.884;2022-11-14T17:47:57;20.70;50.50
21275;DHT22;36472;52.170;20.884;2022-11-14T17:50:44;20.70;50.30
21275;DHT22;36472;52.170;20.884;2022-11-14T17:53:31;20.80;50.20
21275;DHT22;36472;52.170;20.884;2022-11-14T17:56:20;20.80;50.30
21275;DHT22;36472;52.170;20.884;2022-11-14T17:59:09;20.80;50.50
21275;DHT22;36472;52.170;20.884;2022-11-14T18:06:49;20.90;50.00
21275;DHT22;36472;52.170;20.884;2022-11-14T18:09:38;20.80;50.00
21275;DHT22;36472;52.170;20.884;2022-11-14T18:12:26;20.70;50.30
21275;DHT22;36472;52.170;20.884;2022-11-14T18:15:14;20.60;50.40
21275;DHT22;36472;52.170;20.884;2022-11-14T18:18:02;20.60;50.50
21275;DHT22;36472;52.170;20.884;2022-11-14T18:20:49;20.70;50.50
21275;DHT22;36472;52.170;20.884;2022-11-14T18:23:38;20.80;50.50
21275;DHT22;36472;52.170;20.884;2022-11-14T18:31:17;20.80;50.20
21275;DHT22;36472;52.170;20.884;2022-11-14T18:34:05;20.80;50.20
21275;DHT22;36472;52.170;20.884;2022-11-14T18:36:52;20.80;50.10
21275;DHT22;36472;52.170;20.884;2022-11-14T18:39:40;20.70;50.20
21275;DHT22;36472;52.170;20.884;2022-11-14T18:42:29;20.60;50.40
21275;DHT22;36472;52.170;20.884;2022-11-14T18:45:17;20.70;50.60
21275;DHT22;36472;52.170;20.884;2022-11-14T18:48:05;20.70;50.60
21275;DHT22;36472;52.170;20.884;2022-11-14T18:50:52;20.80;50.50
21275;DHT22;36472;52.170;20.884;2022-11-14T18:53:45;20.80;50.40
21275;DHT22;36472;52.170;20.884;2022-11-14T18:56:35;20.90;50.40
21275;DHT22;36472;52.170;20.884;2022-11-14T19:04:15;21.00;49.80
21275;DHT22;36472;52.170;20.884;2022-11-14T19:07:04;20.90;50.10
21275;DHT22;36472;52.170;20.884;2022-11-14T19:09:52;20.90;50.00
21275;DHT22;36472;52.170;20.884;2022-11-14T19:12:40;20.90;50.10
21275;DHT22;36472;52.170;20.884;2022-11-14T19:15:27;20.90;50.10
21275;DHT22;36472;52.170;20.884;2022-11-14T19:18:15;20.90;50.00
21275;DHT22;36472;52.170;20.884;2022-11-14T19:21:02;20.90;50.20
21275;DHT22;36472;52.170;20.884;2022-11-14T19:23:50;20.90;50.10
21275;DHT22;36472;52.170;20.884;2022-11-14T19:31:30;20.90;50.10
21275;DHT22;36472;52.170;20.884;2022-11-14T19:34:17;20.70;50.40
21275;DHT22;36472;52.170;20.884;2022-11-14T19:37:05;20.80;50.50